sensor_id;sensor_type;location;lat;lon;timestamp;P1;durP1;ratioP1;P2;durP2;ratioP2
54177;SDS011;40085;53.004;6.770;2023-02-15T00:01:38;23.70;;;12.55;;
54177;SDS011;40085;53.004;6.770;2023-02-15T00:04:05;22.48;;;11.20;;
54177;SDS011;40085;53.004;6.770;2023-02-15T00:06:31;27.67;;;12.07;;
54177;SDS011;40085;53.004;6.770;2023-02-15T00:08:57;30.25;;;12.02;;
54177;SDS011;40085;53.004;6.770;2023-02-15T00:11:22;29.27;;;12.40;;
54177;SDS011;40085;53.004;6.770;2023-02-15T00:14:08;23.25;;;11.32;;
54177;SDS011;40085;53.004;6.770;2023-02-15T00:16:36;17.02;;;9.77;;
54177;SDS011;40085;53.004;6.770;2023-02-15T00:19:03;22.35;;;11.60;;
54177;SDS011;40085;53.004;6.770;2023-02-15T00:21:29;28.23;;;12.75;;
54177;SDS011;40085;53.004;6.770;2023-02-15T00:23:57;26.60;;;12.55;;
54177;SDS011;40085;53.004;6.770;2023-02-15T00:26:23;27.85;;;12.13;;
54177;SDS011;40085;53.004;6.770;2023-02-15T00:28:49;27.98;;;11.35;;
54177;SDS011;40085;53.004;6.770;2023-02-15T00:31:15;26.10;;;12.73;;
54177;SDS011;40085;53.004;6.770;2023-02-15T00:33:40;17.83;;;9.70;;
54177;SDS011;40085;53.004;6.770;2023-02-15T00:36:07;19.58;;;10.30;;
54177;SDS011;40085;53.004;6.770;2023-02-15T00:38:34;15.60;;;10.25;;
54177;SDS011;40085;53.004;6.770;2023-02-15T00:41:01;24.13;;;11.13;;
54177;SDS011;40085;53.004;6.770;2023-02-15T00:43:30;17.27;;;9.88;;
54177;SDS011;40085;53.004;6.770;2023-02-15T00:45:57;22.38;;;10.35;;
54177;SDS011;40085;53.004;6.770;2023-02-15T00:48:23;20.08;;;9.95;;
54177;SDS011;40085;53.004;6.770;2023-02-15T00:50:49;21.77;;;10.88;;
54177;SDS011;40085;53.004;6.770;2023-02-15T00:53:17;19.88;;;10.20;;
54177;SDS011;40085;53.004;6.770;2023-02-15T00:55:42;19.85;;;10.10;;
54177;SDS011;40085;53.004;6.770;2023-02-15T00:58:09;19.48;;;9.93;;
54177;SDS011;40085;53.004;6.770;2023-02-15T01:00:35;19.15;;;9.70;;
54177;SDS011;40085;53.004;6.770;2023-02-15T01:03:01;18.70;;;10.32;;
54177;SDS011;40085;53.004;6.770;2023-02-15T01:05:27;15.27;;;9.05;;
54177;SDS011;40085;53.004;6.770;2023-02-15T01:07:54;16.58;;;9.77;;
54177;SDS011;40085;53.004;6.770;2023-02-15T01:10:24;20.17;;;9.38;;
54177;SDS011;40085;53.004;6.770;2023-02-15T01:12:51;21.75;;;10.63;;
54177;SDS011;40085;53.004;6.770;2023-02-15T01:15:17;17.02;;;10.25;;
54177;SDS011;40085;53.004;6.770;2023-02-15T01:17:43;18.77;;;10.27;;
54177;SDS011;40085;53.004;6.770;2023-02-15T01:20:14;20.42;;;10.15;;
54177;SDS011;40085;53.004;6.770;2023-02-15T01:22:40;21.48;;;11.63;;
54177;SDS011;40085;53.004;6.770;2023-02-15T01:25:05;24.80;;;10.98;;
54177;SDS011;40085;53.004;6.770;2023-02-15T01:27:31;17.88;;;9.75;;
54177;SDS011;40085;53.004;6.770;2023-02-15T01:29:57;18.67;;;10.65;;
54177;SDS011;40085;53.004;6.770;2023-02-15T01:32:23;24.80;;;10.93;;
54177;SDS011;40085;53.004;6.770;2023-02-15T01:34:48;23.13;;;10.15;;
54177;SDS011;40085;53.004;6.770;2023-02-15T01:37:14;25.23;;;11.75;;
54177;SDS011;40085;53.004;6.770;2023-02-15T01:39:40;25.38;;;12.40;;
54177;SDS011;40085;53.004;6.770;2023-02-15T01:42:07;30.00;;;12.70;;
54177;SDS011;40085;53.004;6.770;2023-02-15T01:44:49;28.45;;;12.68;;
54177;SDS011;40085;53.004;6.770;2023-02-15T01:47:16;16.73;;;10.80;;
54177;SDS011;40085;53.004;6.770;2023-02-15T01:50:02;26.48;;;11.75;;
54177;SDS011;40085;53.004;6.770;2023-02-15T01:52:28;21.60;;;11.00;;
54177;SDS011;40085;53.004;6.770;2023-02-15T01:54:54;27.20;;;11.10;;
54177;SDS011;40085;53.004;6.770;2023-02-15T01:57:21;26.88;;;11.38;;
54177;SDS011;40085;53.004;6.770;2023-02-15T01:59:51;22.65;;;12.65;;
54177;SDS011;40085;53.004;6.770;2023-02-15T02:02:21;25.05;;;12.05;;
54177;SDS011;40085;53.004;6.770;2023-02-15T02:04:52;27.38;;;12.38;;
54177;SDS011;40085;53.004;6.770;2023-02-15T02:07:22;23.80;;;11.77;;
54177;SDS011;40085;53.004;6.770;2023-02-15T02:09:51;24.88;;;11.20;;
54177;SDS011;40085;53.004;6.770;2023-02-15T02:12:17;27.52;;;12.30;;
54177;SDS011;40085;53.004;6.770;2023-02-15T02:14:45;26.35;;;12.73;;
54177;SDS011;40085;53.004;6.770;2023-02-15T02:36:47;30.27;;;12.63;;
54177;SDS011;40085;53.004;6.770;2023-02-15T02:42:16;29.65;;;11.82;;
54177;SDS011;40085;53.004;6.770;2023-02-15T02:44:44;24.63;;;12.05;;
54177;SDS011;40085;53.004;6.770;2023-02-15T02:50:22;24.52;;;11.48;;
54177;SDS011;40085;53.004;6.770;2023-02-15T02:52:51;27.13;;;12.70;;
54177;SDS011;40085;53.004;6.770;2023-02-15T02:55:21;23.98;;;11.65;;
54177;SDS011;40085;53.004;6.770;2023-02-15T02:58:05;26.27;;;12.90;;
54177;SDS011;40085;53.004;6.770;2023-02-15T03:00:55;27.58;;;12.20;;
54177;SDS011;40085;53.004;6.770;2023-02-15T03:03:36;28.98;;;13.00;;
54177;SDS011;40085;53.004;6.770;2023-02-15T03:06:07;27.25;;;12.35;;
54177;SDS011;40085;53.004;6.770;2023-02-15T03:08:38;25.70;;;12.25;;
54177;SDS011;40085;53.004;6.770;2023-02-15T03:11:09;24.60;;;13.20;;
54177;SDS011;40085;53.004;6.770;2023-02-15T03:13:36;26.33;;;13.60;;
54177;SDS011;40085;53.004;6.770;2023-02-15T03:16:02;24.52;;;11.75;;
54177;SDS011;40085;53.004;6.770;2023-02-15T03:18:51;27.70;;;13.35;;
54177;SDS011;40085;53.004;6.770;2023-02-15T03:21:25;26.40;;;12.30;;
54177;SDS011;40085;53.004;6.770;2023-02-15T03:24:01;25.83;;;13.02;;
54177;SDS011;40085;53.004;6.770;2023-02-15T03:26:32;28.38;;;14.35;;
54177;SDS011;40085;53.004;6.770;2023-02-15T03:29:01;29.60;;;14.13;;
54177;SDS011;40085;53.004;6.770;2023-02-15T03:31:31;27.08;;;13.38;;
54177;SDS011;40085;53.004;6.770;2023-02-15T03:34:04;21.88;;;11.27;;
54177;SDS011;40085;53.004;6.770;2023-02-15T03:36:36;30.30;;;13.77;;
54177;SDS011;40085;53.004;6.770;2023-02-15T03:41:45;28.45;;;12.57;;
54177;SDS011;40085;53.004;6.770;2023-02-15T03:44:30;26.83;;;12.40;;
54177;SDS011;40085;53.004;6.770;2023-02-15T03:46:59;22.75;;;12.32;;
54177;SDS011;40085;53.004;6.770;2023-02-15T03:52:06;28.80;;;13.40;;
54177;SDS011;40085;53.004;6.770;2023-02-15T03:54:35;34.20;;;13.77;;
54177;SDS011;40085;53.004;6.770;2023-02-15T03:57:29;23.85;;;12.93;;
54177;SDS011;40085;53.004;6.770;2023-02-15T04:05:40;23.10;;;12.18;;
54177;SDS011;40085;53.004;6.770;2023-02-15T04:08:07;26.92;;;12.95;;
54177;SDS011;40085;53.004;6.770;2023-02-15T04:10:33;23.23;;;12.18;;
54177;SDS011;40085;53.004;6.770;2023-02-15T04:13:20;22.75;;;12.93;;
54177;SDS011;40085;53.004;6.770;2023-02-15T04:15:47;23.52;;;12.68;;
54177;SDS011;40085;53.004;6.770;2023-02-15T04:18:29;20.25;;;11.52;;
54177;SDS011;40085;53.004;6.770;2023-02-15T04:21:13;22.98;;;11.38;;
54177;SDS011;40085;53.004;6.770;2023-02-15T04:23:58;25.33;;;10.48;;
54177;SDS011;40085;53.004;6.770;2023-02-15T04:26:42;24.90;;;11.63;;
54177;SDS011;40085;53.004;6.770;2023-02-15T04:29:08;28.15;;;14.00;;
54177;SDS011;40085;53.004;6.770;2023-02-15T04:31:33;27.23;;;13.20;;
54177;SDS011;40085;53.004;6.770;2023-02-15T04:33:59;26.73;;;12.40;;
54177;SDS011;40085;53.004;6.770;2023-02-15T04:36:24;26.83;;;12.32;;
54177;SDS011;40085;53.004;6.770;2023-02-15T04:38:50;26.27;;;11.95;;
54177;SDS011;40085;53.004;6.770;2023-02-15T04:41:15;29.23;;;13.93;;
54177;SDS011;40085;53.004;6.770;2023-02-15T04:43:41;30.23;;;13.00;;
54177;SDS011;40085;53.004;6.770;2023-02-15T04:46:06;25.77;;;13.20;;
54177;SDS011;40085;53.004;6.770;2023-02-15T04:48:32;28.80;;;14.05;;
54177;SDS011;40085;53.004;6.770;2023-02-15T04:50:58;27.35;;;14.25;;
54177;SDS011;40085;53.004;6.770;2023-02-15T04:53:23;26.10;;;15.75;;
54177;SDS011;40085;53.004;6.770;2023-02-15T04:55:49;24.70;;;14.10;;
54177;SDS011;40085;53.004;6.770;2023-02-15T04:58:14;31.73;;;15.95;;
54177;SDS011;40085;53.004;6.770;2023-02-15T05:00:40;25.83;;;14.40;;
54177;SDS011;40085;53.004;6.770;2023-02-15T05:03:05;34.88;;;16.40;;
54177;SDS011;40085;53.004;6.770;2023-02-15T05:05:31;30.05;;;14.57;;
54177;SDS011;40085;53.004;6.770;2023-02-15T05:07:57;34.13;;;14.93;;
54177;SDS011;40085;53.004;6.770;2023-02-15T05:10:22;38.65;;;16.42;;
54177;SDS011;40085;53.004;6.770;2023-02-15T05:12:48;32.55;;;15.07;;
54177;SDS011;40085;53.004;6.770;2023-02-15T05:15:13;28.27;;;15.25;;
54177;SDS011;40085;53.004;6.770;2023-02-15T05:17:39;25.27;;;15.45;;
54177;SDS011;40085;53.004;6.770;2023-02-15T05:20:05;27.92;;;15.45;;
54177;SDS011;40085;53.004;6.770;2023-02-15T05:22:32;33.80;;;16.83;;
54177;SDS011;40085;53.004;6.770;2023-02-15T05:24:57;30.80;;;15.90;;
54177;SDS011;40085;53.004;6.770;2023-02-15T05:27:41;34.08;;;16.25;;
54177;SDS011;40085;53.004;6.770;2023-02-15T05:30:25;30.60;;;16.25;;
54177;SDS011;40085;53.004;6.770;2023-02-15T05:32:51;27.63;;;16.35;;
54177;SDS011;40085;53.004;6.770;2023-02-15T05:35:17;28.25;;;15.30;;
54177;SDS011;40085;53.004;6.770;2023-02-15T05:37:43;27.35;;;16.33;;
54177;SDS011;40085;53.004;6.770;2023-02-15T05:40:09;28.70;;;16.42;;
54177;SDS011;40085;53.004;6.770;2023-02-15T05:42:35;24.80;;;15.18;;
54177;SDS011;40085;53.004;6.770;2023-02-15T05:45:00;28.00;;;14.43;;
54177;SDS011;40085;53.004;6.770;2023-02-15T05:47:26;35.80;;;16.05;;
54177;SDS011;40085;53.004;6.770;2023-02-15T05:49:51;32.00;;;15.73;;
54177;SDS011;40085;53.004;6.770;2023-02-15T05:52:17;29.20;;;15.65;;
54177;SDS011;40085;53.004;6.770;2023-02-15T05:54:43;35.80;;;15.20;;
54177;SDS011;40085;53.004;6.770;2023-02-15T05:57:08;35.63;;;16.83;;
54177;SDS011;40085;53.004;6.770;2023-02-15T05:59:34;32.38;;;14.50;;
54177;SDS011;40085;53.004;6.770;2023-02-15T06:01:59;30.50;;;15.95;;
54177;SDS011;40085;53.004;6.770;2023-02-15T06:04:25;26.27;;;14.27;;
54177;SDS011;40085;53.004;6.770;2023-02-15T06:06:51;23.88;;;14.60;;
54177;SDS011;40085;53.004;6.770;2023-02-15T06:09:16;26.88;;;13.18;;
54177;SDS011;40085;53.004;6.770;2023-02-15T06:11:45;27.88;;;14.20;;
54177;SDS011;40085;53.004;6.770;2023-02-15T06:14:11;23.80;;;13.40;;
54177;SDS011;40085;53.004;6.770;2023-02-15T06:16:36;19.45;;;12.60;;
54177;SDS011;40085;53.004;6.770;2023-02-15T06:19:02;25.00;;;13.07;;
54177;SDS011;40085;53.004;6.770;2023-02-15T06:21:28;21.33;;;13.13;;
54177;SDS011;40085;53.004;6.770;2023-02-15T06:23:54;29.48;;;14.40;;
54177;SDS011;40085;53.004;6.770;2023-02-15T06:26:20;29.70;;;13.02;;
54177;SDS011;40085;53.004;6.770;2023-02-15T06:28:46;21.77;;;13.98;;
54177;SDS011;40085;53.004;6.770;2023-02-15T06:31:11;25.60;;;11.88;;
54177;SDS011;40085;53.004;6.770;2023-02-15T06:33:37;24.02;;;12.73;;
54177;SDS011;40085;53.004;6.770;2023-02-15T06:36:03;31.10;;;12.45;;
54177;SDS011;40085;53.004;6.770;2023-02-15T06:38:29;23.13;;;12.80;;
54177;SDS011;40085;53.004;6.770;2023-02-15T06:40:55;24.48;;;13.52;;
54177;SDS011;40085;53.004;6.770;2023-02-15T06:43:20;22.30;;;12.63;;
54177;SDS011;40085;53.004;6.770;2023-02-15T06:45:46;24.92;;;11.55;;
54177;SDS011;40085;53.004;6.770;2023-02-15T06:48:11;22.45;;;12.95;;
54177;SDS011;40085;53.004;6.770;2023-02-15T06:50:37;21.88;;;12.38;;
54177;SDS011;40085;53.004;6.770;2023-02-15T06:53:03;23.42;;;10.98;;
54177;SDS011;40085;53.004;6.770;2023-02-15T06:55:29;21.92;;;10.98;;
54177;SDS011;40085;53.004;6.770;2023-02-15T06:57:54;26.25;;;11.32;;
54177;SDS011;40085;53.004;6.770;2023-02-15T07:00:20;26.25;;;11.00;;
54177;SDS011;40085;53.004;6.770;2023-02-15T07:02:48;21.80;;;11.07;;
54177;SDS011;40085;53.004;6.770;2023-02-15T07:05:20;20.13;;;11.88;;
54177;SDS011;40085;53.004;6.770;2023-02-15T07:07:46;21.85;;;10.80;;
54177;SDS011;40085;53.004;6.770;2023-02-15T07:10:11;23.60;;;11.68;;
54177;SDS011;40085;53.004;6.770;2023-02-15T07:12:37;18.48;;;11.30;;
54177;SDS011;40085;53.004;6.770;2023-02-15T07:15:13;18.15;;;11.25;;
54177;SDS011;40085;53.004;6.770;2023-02-15T07:17:40;20.52;;;10.30;;
54177;SDS011;40085;53.004;6.770;2023-02-15T07:20:09;23.17;;;11.07;;
54177;SDS011;40085;53.004;6.770;2023-02-15T07:22:36;25.83;;;12.80;;
54177;SDS011;40085;53.004;6.770;2023-02-15T07:25:06;21.13;;;11.07;;
54177;SDS011;40085;53.004;6.770;2023-02-15T07:27:33;22.47;;;11.50;;
54177;SDS011;40085;53.004;6.770;2023-02-15T07:29:59;21.77;;;12.38;;
54177;SDS011;40085;53.004;6.770;2023-02-15T07:32:27;28.45;;;14.68;;
54177;SDS011;40085;53.004;6.770;2023-02-15T07:34:54;21.00;;;11.57;;
54177;SDS011;40085;53.004;6.770;2023-02-15T07:37:19;21.67;;;12.63;;
54177;SDS011;40085;53.004;6.770;2023-02-15T07:39:45;25.33;;;13.27;;
54177;SDS011;40085;53.004;6.770;2023-02-15T07:42:10;21.90;;;11.93;;
54177;SDS011;40085;53.004;6.770;2023-02-15T07:44:36;20.25;;;11.90;;
54177;SDS011;40085;53.004;6.770;2023-02-15T07:47:01;23.10;;;12.27;;
54177;SDS011;40085;53.004;6.770;2023-02-15T07:49:27;18.15;;;10.68;;
54177;SDS011;40085;53.004;6.770;2023-02-15T07:51:53;17.48;;;11.15;;
54177;SDS011;40085;53.004;6.770;2023-02-15T07:54:18;23.90;;;12.40;;
54177;SDS011;40085;53.004;6.770;2023-02-15T07:56:44;21.98;;;12.10;;
54177;SDS011;40085;53.004;6.770;2023-02-15T07:59:10;22.55;;;10.63;;
54177;SDS011;40085;53.004;6.770;2023-02-15T08:01:36;22.63;;;11.40;;
54177;SDS011;40085;53.004;6.770;2023-02-15T08:04:03;21.80;;;12.80;;
54177;SDS011;40085;53.004;6.770;2023-02-15T08:06:31;27.92;;;12.23;;
54177;SDS011;40085;53.004;6.770;2023-02-15T08:09:00;24.40;;;12.15;;
54177;SDS011;40085;53.004;6.770;2023-02-15T08:11:29;20.58;;;11.93;;
54177;SDS011;40085;53.004;6.770;2023-02-15T08:19:18;27.20;;;11.07;;
54177;SDS011;40085;53.004;6.770;2023-02-15T08:21:50;21.27;;;11.13;;
54177;SDS011;40085;53.004;6.770;2023-02-15T08:24:18;24.48;;;11.27;;
54177;SDS011;40085;53.004;6.770;2023-02-15T08:26:45;21.65;;;10.73;;
54177;SDS011;40085;53.004;6.770;2023-02-15T08:29:13;22.48;;;12.27;;
54177;SDS011;40085;53.004;6.770;2023-02-15T08:31:43;25.17;;;12.13;;
54177;SDS011;40085;53.004;6.770;2023-02-15T08:34:10;25.33;;;12.23;;
54177;SDS011;40085;53.004;6.770;2023-02-15T08:36:38;23.70;;;12.65;;
54177;SDS011;40085;53.004;6.770;2023-02-15T08:39:05;23.35;;;12.25;;
54177;SDS011;40085;53.004;6.770;2023-02-15T08:41:35;21.90;;;11.88;;
54177;SDS011;40085;53.004;6.770;2023-02-15T08:44:02;22.92;;;12.10;;
54177;SDS011;40085;53.004;6.770;2023-02-15T08:46:33;23.80;;;12.73;;
54177;SDS011;40085;53.004;6.770;2023-02-15T08:49:01;24.38;;;12.13;;
54177;SDS011;40085;53.004;6.770;2023-02-15T08:51:28;24.77;;;12.23;;
54177;SDS011;40085;53.004;6.770;2023-02-15T08:53:56;19.92;;;11.48;;
54177;SDS011;40085;53.004;6.770;2023-02-15T08:56:24;24.50;;;12.23;;
54177;SDS011;40085;53.004;6.770;2023-02-15T08:58:55;31.05;;;12.90;;
54177;SDS011;40085;53.004;6.770;2023-02-15T09:01:22;29.05;;;12.48;;
54177;SDS011;40085;53.004;6.770;2023-02-15T09:03:50;26.27;;;11.32;;
54177;SDS011;40085;53.004;6.770;2023-02-15T09:06:19;23.00;;;11.68;;
54177;SDS011;40085;53.004;6.770;2023-02-15T09:08:46;21.00;;;12.30;;
54177;SDS011;40085;53.004;6.770;2023-02-15T09:11:18;22.63;;;11.02;;
54177;SDS011;40085;53.004;6.770;2023-02-15T09:13:51;25.50;;;11.93;;
54177;SDS011;40085;53.004;6.770;2023-02-15T09:16:18;19.65;;;11.10;;
54177;SDS011;40085;53.004;6.770;2023-02-15T09:18:44;22.70;;;13.55;;
54177;SDS011;40085;53.004;6.770;2023-02-15T09:21:11;27.48;;;12.43;;
54177;SDS011;40085;53.004;6.770;2023-02-15T09:23:42;20.00;;;11.73;;
54177;SDS011;40085;53.004;6.770;2023-02-15T09:26:10;23.58;;;12.55;;
54177;SDS011;40085;53.004;6.770;2023-02-15T09:28:41;35.15;;;12.27;;
54177;SDS011;40085;53.004;6.770;2023-02-15T09:31:11;27.85;;;12.40;;
54177;SDS011;40085;53.004;6.770;2023-02-15T09:33:38;27.25;;;13.05;;
54177;SDS011;40085;53.004;6.770;2023-02-15T09:36:05;22.50;;;11.70;;
54177;SDS011;40085;53.004;6.770;2023-02-15T09:38:38;23.20;;;12.27;;
54177;SDS011;40085;53.004;6.770;2023-02-15T09:44:05;26.33;;;12.93;;
54177;SDS011;40085;53.004;6.770;2023-02-15T09:52:12;24.80;;;12.57;;
54177;SDS011;40085;53.004;6.770;2023-02-15T09:57:46;23.92;;;12.82;;
54177;SDS011;40085;53.004;6.770;2023-02-15T10:14:26;23.75;;;12.77;;
54177;SDS011;40085;53.004;6.770;2023-02-15T10:25:29;25.38;;;13.82;;
54177;SDS011;40085;53.004;6.770;2023-02-15T10:28:16;31.15;;;14.35;;
54177;SDS011;40085;53.004;6.770;2023-02-15T10:36:42;24.40;;;14.57;;
54177;SDS011;40085;53.004;6.770;2023-02-15T10:45:12;27.95;;;14.55;;
54177;SDS011;40085;53.004;6.770;2023-02-15T10:53:16;24.63;;;13.80;;
54177;SDS011;40085;53.004;6.770;2023-02-15T10:56:12;35.83;;;14.55;;
54177;SDS011;40085;53.004;6.770;2023-02-15T10:58:59;28.50;;;13.30;;
54177;SDS011;40085;53.004;6.770;2023-02-15T11:02:10;23.48;;;13.65;;
54177;SDS011;40085;53.004;6.770;2023-02-15T11:04:59;25.70;;;12.40;;
54177;SDS011;40085;53.004;6.770;2023-02-15T11:07:47;25.77;;;14.93;;
54177;SDS011;40085;53.004;6.770;2023-02-15T11:13:07;25.77;;;14.75;;
54177;SDS011;40085;53.004;6.770;2023-02-15T11:15:47;29.70;;;14.25;;
54177;SDS011;40085;53.004;6.770;2023-02-15T11:20:56;30.45;;;14.50;;
54177;SDS011;40085;53.004;6.770;2023-02-15T11:23:32;23.52;;;13.10;;
54177;SDS011;40085;53.004;6.770;2023-02-15T11:26:02;30.55;;;13.73;;
54177;SDS011;40085;53.004;6.770;2023-02-15T11:30:58;26.75;;;13.32;;
54177;SDS011;40085;53.004;6.770;2023-02-15T11:33:29;25.00;;;13.95;;
54177;SDS011;40085;53.004;6.770;2023-02-15T11:36:00;24.10;;;14.02;;
54177;SDS011;40085;53.004;6.770;2023-02-15T11:38:39;25.45;;;12.90;;
54177;SDS011;40085;53.004;6.770;2023-02-15T11:41:09;27.38;;;13.40;;
54177;SDS011;40085;53.004;6.770;2023-02-15T11:46:15;27.55;;;12.27;;
54177;SDS011;40085;53.004;6.770;2023-02-15T11:48:41;25.77;;;11.27;;
54177;SDS011;40085;53.004;6.770;2023-02-15T11:51:18;22.98;;;12.45;;
54177;SDS011;40085;53.004;6.770;2023-02-15T11:53:45;23.95;;;11.15;;
54177;SDS011;40085;53.004;6.770;2023-02-15T11:56:15;21.60;;;11.40;;
54177;SDS011;40085;53.004;6.770;2023-02-15T11:58:44;23.80;;;12.70;;
54177;SDS011;40085;53.004;6.770;2023-02-15T12:04:19;23.50;;;11.85;;
54177;SDS011;40085;53.004;6.770;2023-02-15T12:14:57;27.67;;;12.43;;
54177;SDS011;40085;53.004;6.770;2023-02-15T12:17:26;28.65;;;12.38;;
54177;SDS011;40085;53.004;6.770;2023-02-15T12:20:02;24.70;;;12.88;;
54177;SDS011;40085;53.004;6.770;2023-02-15T12:22:32;24.13;;;13.10;;
54177;SDS011;40085;53.004;6.770;2023-02-15T12:25:02;30.55;;;14.38;;
54177;SDS011;40085;53.004;6.770;2023-02-15T12:27:44;24.60;;;12.68;;
54177;SDS011;40085;53.004;6.770;2023-02-15T12:30:18;32.70;;;13.18;;
54177;SDS011;40085;53.004;6.770;2023-02-15T12:32:52;22.92;;;12.45;;
54177;SDS011;40085;53.004;6.770;2023-02-15T12:35:31;26.63;;;12.57;;
54177;SDS011;40085;53.004;6.770;2023-02-15T12:38:03;22.67;;;12.27;;
54177;SDS011;40085;53.004;6.770;2023-02-15T12:41:10;28.75;;;13.50;;
54177;SDS011;40085;53.004;6.770;2023-02-15T12:44:03;23.10;;;13.07;;
54177;SDS011;40085;53.004;6.770;2023-02-15T12:46:29;28.50;;;12.38;;
54177;SDS011;40085;53.004;6.770;2023-02-15T12:49:13;26.45;;;13.52;;
54177;SDS011;40085;53.004;6.770;2023-02-15T13:00:03;22.50;;;11.55;;
54177;SDS011;40085;53.004;6.770;2023-02-15T13:05:13;24.90;;;10.63;;
54177;SDS011;40085;53.004;6.770;2023-02-15T13:07:44;24.63;;;11.52;;
54177;SDS011;40085;53.004;6.770;2023-02-15T13:13:22;21.80;;;11.02;;
54177;SDS011;40085;53.004;6.770;2023-02-15T13:15:55;25.95;;;12.35;;
54177;SDS011;40085;53.004;6.770;2023-02-15T13:20:55;27.38;;;13.85;;
54177;SDS011;40085;53.004;6.770;2023-02-15T13:23:28;18.08;;;10.85;;
54177;SDS011;40085;53.004;6.770;2023-02-15T13:25:58;21.90;;;12.63;;
54177;SDS011;40085;53.004;6.770;2023-02-15T13:28:31;22.98;;;12.02;;
54177;SDS011;40085;53.004;6.770;2023-02-15T13:31:09;27.67;;;12.25;;
54177;SDS011;40085;53.004;6.770;2023-02-15T13:33:38;21.45;;;11.55;;
54177;SDS011;40085;53.004;6.770;2023-02-15T13:39:05;29.02;;;12.88;;
54177;SDS011;40085;53.004;6.770;2023-02-15T13:44:14;24.80;;;13.00;;
54177;SDS011;40085;53.004;6.770;2023-02-15T13:52:21;25.20;;;11.48;;
54177;SDS011;40085;53.004;6.770;2023-02-15T13:54:56;20.95;;;11.85;;
54177;SDS011;40085;53.004;6.770;2023-02-15T14:00:21;25.77;;;12.23;;
54177;SDS011;40085;53.004;6.770;2023-02-15T14:06:00;27.05;;;13.10;;
54177;SDS011;40085;53.004;6.770;2023-02-15T14:11:37;23.60;;;11.38;;
54177;SDS011;40085;53.004;6.770;2023-02-15T14:17:30;25.13;;;11.38;;
54177;SDS011;40085;53.004;6.770;2023-02-15T14:20:08;22.98;;;12.27;;
54177;SDS011;40085;53.004;6.770;2023-02-15T14:22:44;26.08;;;13.15;;
54177;SDS011;40085;53.004;6.770;2023-02-15T14:25:27;23.13;;;11.90;;
54177;SDS011;40085;53.004;6.770;2023-02-15T14:28:11;23.80;;;12.52;;
54177;SDS011;40085;53.004;6.770;2023-02-15T14:30:47;26.15;;;13.02;;
54177;SDS011;40085;53.004;6.770;2023-02-15T14:33:31;22.02;;;12.23;;
54177;SDS011;40085;53.004;6.770;2023-02-15T14:36:00;24.45;;;11.57;;
54177;SDS011;40085;53.004;6.770;2023-02-15T14:38:36;21.40;;;11.23;;
54177;SDS011;40085;53.004;6.770;2023-02-15T14:41:12;24.50;;;11.93;;
54177;SDS011;40085;53.004;6.770;2023-02-15T14:46:52;24.35;;;11.30;;
54177;SDS011;40085;53.004;6.770;2023-02-15T14:49:30;24.45;;;12.00;;
54177;SDS011;40085;53.004;6.770;2023-02-15T14:52:02;25.02;;;12.10;;
54177;SDS011;40085;53.004;6.770;2023-02-15T15:02:59;24.98;;;11.45;;
54177;SDS011;40085;53.004;6.770;2023-02-15T15:05:18;23.77;;;11.98;;
54177;SDS011;40085;53.004;6.770;2023-02-15T15:08:01;19.38;;;11.23;;
54177;SDS011;40085;53.004;6.770;2023-02-15T15:10:33;23.23;;;11.27;;
54177;SDS011;40085;53.004;6.770;2023-02-15T15:12:59;22.55;;;11.10;;
54177;SDS011;40085;53.004;6.770;2023-02-15T15:15:57;21.98;;;10.68;;
54177;SDS011;40085;53.004;6.770;2023-02-15T15:22:17;21.92;;;10.85;;
54177;SDS011;40085;53.004;6.770;2023-02-15T15:33:29;19.10;;;10.00;;
54177;SDS011;40085;53.004;6.770;2023-02-15T15:49:28;23.33;;;11.57;;
54177;SDS011;40085;53.004;6.770;2023-02-15T15:51:56;22.70;;;11.07;;
54177;SDS011;40085;53.004;6.770;2023-02-15T15:54:26;28.87;;;11.40;;
54177;SDS011;40085;53.004;6.770;2023-02-15T15:56:53;31.33;;;12.27;;
54177;SDS011;40085;53.004;6.770;2023-02-15T15:59:24;22.17;;;11.30;;
54177;SDS011;40085;53.004;6.770;2023-02-15T16:01:51;20.60;;;10.27;;
54177;SDS011;40085;53.004;6.770;2023-02-15T16:06:55;29.27;;;12.52;;
54177;SDS011;40085;53.004;6.770;2023-02-15T16:09:26;21.60;;;12.30;;
54177;SDS011;40085;53.004;6.770;2023-02-15T16:11:58;17.92;;;10.02;;
54177;SDS011;40085;53.004;6.770;2023-02-15T16:14:30;25.58;;;12.63;;
54177;SDS011;40085;53.004;6.770;2023-02-15T16:17:00;21.50;;;11.73;;
54177;SDS011;40085;53.004;6.770;2023-02-15T16:19:30;23.42;;;11.48;;
54177;SDS011;40085;53.004;6.770;2023-02-15T16:21:59;17.95;;;10.98;;
54177;SDS011;40085;53.004;6.770;2023-02-15T16:35:56;23.35;;;10.90;;
54177;SDS011;40085;53.004;6.770;2023-02-15T16:38:40;20.38;;;10.13;;
54177;SDS011;40085;53.004;6.770;2023-02-15T16:41:15;21.88;;;11.05;;
54177;SDS011;40085;53.004;6.770;2023-02-15T16:43:47;22.17;;;10.90;;
54177;SDS011;40085;53.004;6.770;2023-02-15T16:46:15;20.00;;;10.88;;
54177;SDS011;40085;53.004;6.770;2023-02-15T16:48:45;22.70;;;11.80;;
54177;SDS011;40085;53.004;6.770;2023-02-15T16:51:35;21.58;;;10.32;;
54177;SDS011;40085;53.004;6.770;2023-02-15T16:54:03;18.70;;;10.40;;
54177;SDS011;40085;53.004;6.770;2023-02-15T16:56:31;22.02;;;10.80;;
54177;SDS011;40085;53.004;6.770;2023-02-15T16:58:58;22.60;;;11.52;;
54177;SDS011;40085;53.004;6.770;2023-02-15T17:01:29;19.02;;;11.02;;
54177;SDS011;40085;53.004;6.770;2023-02-15T17:04:25;29.35;;;12.70;;
54177;SDS011;40085;53.004;6.770;2023-02-15T17:07:13;23.75;;;11.85;;
54177;SDS011;40085;53.004;6.770;2023-02-15T17:15:31;21.83;;;10.55;;
54177;SDS011;40085;53.004;6.770;2023-02-15T17:18:21;24.15;;;11.15;;
54177;SDS011;40085;53.004;6.770;2023-02-15T17:20:48;26.30;;;11.40;;
54177;SDS011;40085;53.004;6.770;2023-02-15T17:28:43;27.27;;;10.18;;
54177;SDS011;40085;53.004;6.770;2023-02-15T17:31:16;30.67;;;11.32;;
54177;SDS011;40085;53.004;6.770;2023-02-15T17:33:43;24.67;;;11.35;;
54177;SDS011;40085;53.004;6.770;2023-02-15T17:38:40;29.00;;;11.27;;
54177;SDS011;40085;53.004;6.770;2023-02-15T17:41:27;18.50;;;10.48;;
54177;SDS011;40085;53.004;6.770;2023-02-15T17:44:02;26.52;;;10.45;;
54177;SDS011;40085;53.004;6.770;2023-02-15T17:46:30;17.23;;;10.38;;
54177;SDS011;40085;53.004;6.770;2023-02-15T17:48:59;26.63;;;11.40;;
54177;SDS011;40085;53.004;6.770;2023-02-15T17:51:26;21.00;;;10.98;;
54177;SDS011;40085;53.004;6.770;2023-02-15T17:53:51;23.58;;;11.63;;
54177;SDS011;40085;53.004;6.770;2023-02-15T17:56:36;23.85;;;11.02;;
54177;SDS011;40085;53.004;6.770;2023-02-15T17:59:03;23.65;;;10.63;;
54177;SDS011;40085;53.004;6.770;2023-02-15T18:01:31;24.00;;;12.52;;
54177;SDS011;40085;53.004;6.770;2023-02-15T18:04:17;23.77;;;11.90;;
54177;SDS011;40085;53.004;6.770;2023-02-15T18:07:01;22.33;;;9.77;;
54177;SDS011;40085;53.004;6.770;2023-02-15T18:09:45;26.48;;;10.38;;
54177;SDS011;40085;53.004;6.770;2023-02-15T18:12:31;21.90;;;10.40;;
54177;SDS011;40085;53.004;6.770;2023-02-15T18:14:59;20.45;;;12.00;;
54177;SDS011;40085;53.004;6.770;2023-02-15T18:17:28;24.95;;;11.65;;
54177;SDS011;40085;53.004;6.770;2023-02-15T18:20:01;26.65;;;11.57;;
54177;SDS011;40085;53.004;6.770;2023-02-15T18:22:29;25.58;;;12.68;;